createdAt,value
2018-02-20T11:11:50.755Z,60.69
2018-02-20T11:14:18.310Z,59.26
2018-02-20T11:16:46.046Z,57.61
2018-02-20T11:19:13.753Z,59.16
2018-02-20T11:21:41.370Z,60.00
2018-02-20T11:24:09.125Z,60.84
2018-02-20T11:26:36.792Z,62.43
2018-02-20T11:29:04.451Z,62.48
2018-02-20T11:31:31.982Z,61.77
2018-02-20T11:33:59.636Z,59.31
2018-02-20T11:36:27.413Z,61.67
2018-02-20T11:38:55.362Z,62.63
2018-02-20T11:41:22.972Z,63.67
2018-02-20T11:43:51.118Z,61.12
2018-02-20T11:46:18.887Z,63.53
2018-02-20T11:48:46.535Z,62.85
2018-02-20T11:51:14.189Z,61.45
2018-02-20T11:53:41.791Z,61.48
2018-02-20T11:56:09.336Z,61.42
2018-02-20T11:58:37.104Z,61.98
2018-02-20T12:01:04.711Z,62.02
2018-02-20T12:03:32.487Z,61.66
2018-02-20T12:06:00.283Z,62.77
2018-02-20T12:08:28.633Z,62.30
2018-02-20T12:10:56.557Z,62.31
2018-02-20T12:13:24.194Z,61.83
2018-02-20T12:15:51.829Z,61.64
2018-02-20T12:18:19.524Z,62.52
2018-02-20T12:20:47.374Z,64.48
2018-02-20T12:23:15.191Z,64.28
2018-02-20T12:25:42.986Z,67.76
2018-02-20T12:28:10.747Z,66.91
2018-02-20T12:30:38.411Z,66.92
2018-02-20T12:33:06.153Z,68.24
2018-02-20T12:35:33.883Z,67.61
2018-02-20T12:38:01.757Z,65.21
2018-02-20T12:40:29.547Z,66.16
2018-02-20T12:42:57.287Z,64.11
2018-02-20T12:45:24.892Z,63.29
2018-02-20T12:47:52.728Z,63.05
2018-02-20T12:50:20.560Z,61.35
2018-02-20T12:52:48.773Z,60.73
2018-02-20T12:55:16.528Z,62.66
2018-02-20T12:57:44.111Z,63.64
2018-02-20T13:00:12.121Z,63.00
2018-02-20T13:02:40.138Z,64.03
2018-02-20T13:05:07.854Z,62.37
2018-02-20T13:07:35.666Z,62.18
2018-02-20T13:10:03.551Z,61.93
2018-02-20T13:12:31.376Z,62.25
2018-02-20T13:14:59.097Z,62.67
2018-02-20T13:17:26.912Z,65.38
2018-02-20T13:19:54.556Z,63.42
2018-02-20T13:22:22.148Z,66.59
2018-02-20T13:24:49.947Z,67.58
2018-02-20T13:27:17.807Z,67.36
2018-02-20T13:29:45.445Z,67.24
2018-02-20T13:32:13.234Z,66.41
2018-02-20T13:34:40.782Z,66.52
2018-02-20T13:37:08.393Z,65.25
2018-02-20T13:39:36.274Z,65.43
2018-02-20T13:42:04.323Z,67.64
2018-02-20T13:44:31.859Z,67.47
2018-02-20T13:46:59.792Z,68.59
2018-02-20T13:49:27.494Z,68.92
2018-02-20T13:51:55.285Z,68.63
2018-02-20T13:54:22.896Z,68.78
2018-02-20T13:56:50.442Z,68.65
2018-02-20T13:59:18.341Z,70.72
2018-02-20T14:01:46.003Z,72.06
2018-02-20T14:04:13.696Z,71.69
2018-02-20T14:06:41.320Z,71.33
2018-02-20T14:09:08.963Z,71.72
2018-02-20T14:11:36.592Z,70.74
2018-02-20T14:14:04.172Z,70.89
2018-02-20T14:16:31.717Z,71.05
2018-02-20T14:18:59.303Z,72.62
2018-02-20T14:21:26.882Z,72.28
2018-02-20T14:23:54.584Z,72.88
2018-02-20T14:26:22.228Z,72.39
2018-02-20T14:28:50.388Z,71.28
2018-02-20T14:31:18.496Z,71.63
2018-02-20T14:33:46.072Z,72.34
2018-02-20T14:36:13.688Z,72.42
2018-02-20T14:38:41.428Z,74.20
2018-02-20T14:41:09.668Z,72.73
2018-02-20T14:43:37.517Z,71.91
2018-02-20T14:46:05.267Z,73.28
2018-02-20T14:48:33.517Z,72.88
2018-02-20T14:51:01.177Z,73.67
2018-02-20T14:53:28.918Z,73.97
2018-02-20T14:55:56.516Z,76.52
2018-02-20T14:58:24.352Z,77.51
2018-02-20T15:00:52.223Z,76.26
2018-02-20T15:03:19.808Z,74.43
2018-02-20T15:05:47.486Z,74.51
2018-02-20T15:08:15.169Z,73.94
2018-02-20T15:10:42.876Z,74.22
2018-02-20T15:13:10.638Z,74.48
2018-02-20T15:15:38.229Z,73.42
2018-02-20T15:18:05.857Z,74.07
2018-02-20T15:20:33.436Z,73.16
2018-02-20T15:23:01.220Z,72.98
2018-02-20T15:25:28.951Z,72.78
2018-02-20T15:27:56.637Z,70.64
2018-02-20T15:30:24.482Z,70.31
2018-02-20T15:32:52.091Z,71.34
2018-02-20T15:35:19.822Z,71.87
2018-02-20T15:37:47.532Z,71.58
2018-02-20T15:40:15.789Z,72.22
2018-02-20T15:42:43.346Z,71.08
2018-02-20T15:45:11.054Z,70.50
2018-02-20T15:47:38.932Z,71.46
2018-02-20T15:50:06.767Z,73.21
2018-02-20T15:52:34.424Z,71.83
2018-02-20T15:55:02.005Z,71.95
2018-02-20T15:57:29.615Z,71.05
2018-02-20T15:59:57.269Z,71.20
2018-02-20T16:02:24.918Z,71.73
2018-02-20T16:04:52.561Z,71.28
2018-02-20T16:07:20.264Z,71.13
2018-02-20T16:09:47.874Z,69.05
2018-02-20T16:12:15.762Z,69.88
2018-02-20T16:14:44.154Z,70.01
2018-02-20T16:17:11.827Z,70.60
2018-02-20T16:19:39.433Z,70.26
2018-02-20T16:22:07.158Z,70.23
2018-02-20T16:24:35.195Z,71.34
2018-02-20T16:27:02.775Z,72.04
2018-02-20T16:29:30.619Z,71.38
2018-02-20T16:31:58.276Z,72.54
2018-02-20T16:34:26.134Z,72.65
2018-02-20T16:36:53.726Z,72.44
2018-02-20T16:39:21.463Z,73.01
2018-02-20T16:41:49.268Z,72.40
2018-02-20T16:44:16.854Z,72.44
2018-02-20T16:46:44.432Z,72.37
2018-02-20T16:49:12.260Z,72.23
2018-02-20T16:51:40.344Z,71.90
2018-02-20T16:54:07.946Z,71.98
2018-02-20T16:56:35.740Z,71.92
2018-02-20T16:59:03.723Z,72.59
2018-02-20T17:01:31.398Z,71.35
2018-02-20T17:03:59.038Z,73.16
2018-02-20T17:06:26.597Z,72.31
2018-02-20T17:08:54.283Z,71.74
2018-02-20T17:11:21.975Z,72.65
2018-02-20T17:13:49.591Z,72.50
2018-02-20T17:16:17.345Z,72.77
2018-02-20T17:18:45.119Z,73.98
2018-02-20T17:21:12.823Z,73.93
2018-02-20T17:23:41.112Z,72.79
2018-02-20T17:26:08.713Z,72.62
2018-02-20T17:28:36.314Z,72.84
2018-02-20T17:31:03.871Z,72.63
2018-02-20T17:33:31.438Z,71.98
2018-02-20T17:35:59.026Z,72.81
2018-02-20T17:38:26.576Z,73.05
2018-02-20T17:40:54.543Z,72.90
2018-02-20T17:43:22.091Z,74.17
2018-02-20T17:45:49.807Z,73.41
2018-02-20T17:48:17.603Z,74.23
2018-02-20T17:50:45.185Z,72.94
2018-02-20T17:53:12.802Z,73.73
2018-02-20T17:55:40.602Z,74.20
2018-02-20T17:58:08.272Z,73.52
2018-02-20T18:00:35.970Z,74.45
2018-02-20T18:03:03.500Z,74.49
2018-02-20T18:05:31.550Z,75.43
2018-02-20T18:07:59.208Z,76.07
2018-02-20T18:10:26.992Z,74.51
2018-02-20T18:12:54.644Z,74.01
2018-02-20T18:15:22.207Z,74.67
2018-02-20T18:17:49.978Z,74.89
2018-02-20T18:20:17.901Z,75.87
2018-02-20T18:22:45.898Z,74.35
2018-02-20T18:25:13.694Z,74.86
2018-02-20T18:27:41.746Z,75.76
2018-02-20T18:30:10.521Z,76.17
2018-02-20T18:32:38.172Z,76.26
2018-02-20T18:35:05.878Z,76.55
2018-02-20T18:37:33.477Z,76.80
2018-02-20T18:40:01.232Z,77.18
2018-02-20T18:42:28.958Z,76.38
2018-02-20T18:44:56.735Z,78.27
2018-02-20T18:47:24.809Z,78.65
2018-02-20T18:49:52.521Z,78.87
2018-02-20T18:52:21.201Z,78.83
2018-02-20T18:54:48.932Z,79.41
2018-02-20T18:57:16.603Z,79.54
2018-02-20T18:59:44.386Z,78.82
2018-02-20T19:02:12.104Z,78.12
2018-02-20T19:04:39.664Z,78.89
2018-02-20T19:07:07.634Z,78.57
2018-02-20T19:09:37.466Z,78.92
2018-02-20T19:12:05.254Z,78.87
2018-02-20T19:14:33.622Z,79.42
2018-02-20T19:17:01.549Z,78.89
2018-02-20T19:19:29.302Z,78.49
2018-02-20T19:21:57.026Z,78.46
2018-02-20T19:24:24.748Z,78.25
2018-02-20T19:26:52.536Z,77.94
2018-02-20T19:29:20.089Z,77.71
2018-02-20T19:31:47.941Z,78.61
2018-02-20T19:34:15.566Z,77.37
2018-02-20T19:36:43.287Z,77.17
2018-02-20T19:39:11.049Z,78.31
2018-02-20T19:41:38.687Z,78.37
2018-02-20T19:44:06.504Z,78.89
2018-02-20T19:46:34.123Z,78.24
2018-02-20T19:49:02.732Z,78.00
2018-02-20T19:51:30.597Z,77.85
2018-02-20T19:53:58.460Z,77.64
2018-02-20T19:56:26.094Z,78.11
2018-02-20T19:58:53.879Z,77.70
2018-02-20T20:01:21.646Z,77.75
2018-02-20T20:03:49.253Z,77.01
2018-02-20T20:06:16.849Z,78.00
2018-02-20T20:08:44.899Z,77.38
2018-02-20T20:11:12.668Z,76.02
2018-02-20T20:13:40.510Z,76.94
2018-02-20T20:16:08.168Z,76.52
2018-02-20T20:18:35.791Z,75.51
2018-02-20T20:21:03.497Z,76.11
2018-02-20T20:23:31.173Z,76.37
2018-02-20T20:25:58.842Z,77.31
2018-02-20T20:28:26.459Z,77.36
2018-02-20T20:30:54.192Z,77.45
2018-02-20T20:33:22.068Z,76.90
2018-02-20T20:35:50.129Z,76.83
2018-02-20T20:38:17.806Z,77.66
2018-02-20T20:40:45.422Z,77.01
2018-02-20T20:43:13.098Z,77.61
2018-02-20T20:45:40.749Z,78.72
2018-02-20T20:48:08.639Z,77.84
2018-02-20T20:50:36.251Z,79.68
2018-02-20T20:53:04.149Z,80.15
2018-02-20T20:55:32.462Z,80.56
2018-02-20T20:58:00.252Z,81.22
2018-02-20T21:00:28.854Z,81.35
2018-02-20T21:02:56.554Z,81.62
2018-02-20T21:05:24.288Z,82.25
2018-02-20T21:07:52.201Z,83.93
2018-02-20T21:10:19.900Z,84.62
2018-02-20T21:12:47.642Z,84.04
2018-02-20T21:15:15.464Z,84.04
2018-02-20T21:17:43.057Z,84.43
2018-02-20T21:20:10.989Z,84.84
2018-02-20T21:22:38.654Z,85.27
2018-02-20T21:25:06.312Z,85.67
2018-02-20T21:27:34.052Z,86.28
2018-02-20T21:30:01.664Z,86.05
2018-02-20T21:32:29.272Z,85.44
2018-02-20T21:34:57.184Z,84.82
2018-02-20T21:37:24.828Z,85.17
2018-02-20T21:39:52.483Z,84.95
2018-02-20T21:42:20.247Z,84.51
2018-02-20T21:44:47.821Z,84.34
2018-02-20T21:47:15.552Z,83.86
2018-02-20T21:49:43.078Z,84.00
2018-02-20T21:52:11.459Z,83.73
2018-02-20T21:54:39.054Z,83.54
2018-02-20T21:57:06.814Z,83.19
2018-02-20T21:59:34.416Z,84.09
2018-02-20T22:02:02.164Z,84.08
2018-02-20T22:04:30.065Z,84.24
2018-02-20T22:06:57.989Z,83.53
2018-02-20T22:09:25.593Z,82.08
2018-02-20T22:11:53.480Z,82.86
2018-02-20T22:14:21.160Z,82.13
2018-02-20T22:16:48.879Z,82.27
2018-02-20T22:19:16.592Z,82.87
2018-02-20T22:21:44.361Z,82.45
2018-02-20T22:24:12.114Z,81.92
2018-02-20T22:26:40.068Z,82.74
2018-02-20T22:29:07.653Z,83.18
2018-02-20T22:31:35.199Z,82.35
2018-02-20T22:34:03.224Z,81.49
2018-02-20T22:36:30.797Z,80.93
2018-02-20T22:38:58.343Z,82.28
2018-02-20T22:41:25.977Z,83.50
2018-02-20T22:43:53.581Z,83.31
2018-02-20T22:46:21.429Z,82.52
2018-02-20T22:48:49.038Z,82.54
2018-02-20T22:51:16.738Z,82.63
2018-02-20T22:53:44.592Z,83.53
2018-02-20T22:56:12.258Z,83.33
2018-02-20T22:58:39.881Z,83.00
2018-02-20T23:01:07.557Z,82.70
2018-02-20T23:03:35.263Z,82.19
2018-02-20T23:06:03.629Z,82.79
2018-02-20T23:08:31.452Z,83.60
2018-02-20T23:10:59.117Z,83.88
2018-02-20T23:13:27.280Z,82.96
2018-02-20T23:15:55.178Z,83.73
2018-02-20T23:18:23.548Z,82.96
2018-02-20T23:20:51.268Z,82.34
2018-02-20T23:23:19.742Z,82.08
2018-02-20T23:25:47.334Z,81.89
2018-02-20T23:28:17.008Z,82.63
2018-02-20T23:30:44.758Z,83.50
2018-02-20T23:33:12.339Z,81.95
2018-02-20T23:35:40.664Z,81.68
2018-02-20T23:38:08.377Z,82.28
2018-02-20T23:40:36.363Z,82.73
2018-02-20T23:43:04.178Z,83.21
2018-02-20T23:45:31.813Z,82.39
2018-02-20T23:47:59.426Z,82.42
2018-02-20T23:50:28.157Z,82.91
2018-02-20T23:52:55.840Z,82.31
2018-02-20T23:55:23.497Z,81.93
2018-02-20T23:57:51.113Z,81.77
